sensor_id;sensor_type;location;lat;lon;timestamp;P1;durP1;ratioP1;P2;durP2;ratioP2
52868;SDS011;39100;53.480;6.158;2022-07-04T00:00:21;2.33;;;0.50;;
52868;SDS011;39100;53.480;6.158;2022-07-04T00:02:48;1.40;;;0.65;;
52868;SDS011;39100;53.480;6.158;2022-07-04T00:05:15;2.00;;;0.30;;
52868;SDS011;39100;53.480;6.158;2022-07-04T00:07:42;0.82;;;0.20;;
52868;SDS011;39100;53.480;6.158;2022-07-04T00:10:10;1.05;;;0.30;;
52868;SDS011;39100;53.480;6.158;2022-07-04T00:12:38;0.88;;;0.40;;
52868;SDS011;39100;53.480;6.158;2022-07-04T00:15:04;1.05;;;0.30;;
52868;SDS011;39100;53.480;6.158;2022-07-04T00:17:30;1.38;;;0.30;;
52868;SDS011;39100;53.480;6.158;2022-07-04T00:19:56;1.52;;;0.30;;
52868;SDS011;39100;53.480;6.158;2022-07-04T00:22:22;0.63;;;0.20;;
52868;SDS011;39100;53.480;6.158;2022-07-04T00:24:47;1.05;;;0.50;;
52868;SDS011;39100;53.480;6.158;2022-07-04T00:27:13;1.95;;;0.43;;
52868;SDS011;39100;53.480;6.158;2022-07-04T00:29:39;1.25;;;0.40;;
52868;SDS011;39100;53.480;6.158;2022-07-04T00:32:04;1.00;;;0.55;;
52868;SDS011;39100;53.480;6.158;2022-07-04T00:34:30;1.85;;;0.47;;
52868;SDS011;39100;53.480;6.158;2022-07-04T00:36:56;2.45;;;0.73;;
52868;SDS011;39100;53.480;6.158;2022-07-04T00:39:22;2.03;;;0.50;;
52868;SDS011;39100;53.480;6.158;2022-07-04T00:41:47;0.75;;;0.30;;
52868;SDS011;39100;53.480;6.158;2022-07-04T00:44:13;1.33;;;0.40;;
52868;SDS011;39100;53.480;6.158;2022-07-04T00:46:41;0.60;;;0.40;;
52868;SDS011;39100;53.480;6.158;2022-07-04T00:49:07;3.17;;;0.43;;
52868;SDS011;39100;53.480;6.158;2022-07-04T00:51:33;0.22;;;0.20;;
52868;SDS011;39100;53.480;6.158;2022-07-04T00:53:59;0.75;;;0.30;;
52868;SDS011;39100;53.480;6.158;2022-07-04T00:56:25;1.45;;;0.30;;
52868;SDS011;39100;53.480;6.158;2022-07-04T00:58:52;2.10;;;0.38;;
52868;SDS011;39100;53.480;6.158;2022-07-04T01:01:21;1.60;;;0.25;;
52868;SDS011;39100;53.480;6.158;2022-07-04T01:03:47;1.95;;;0.30;;
52868;SDS011;39100;53.480;6.158;2022-07-04T01:06:16;4.63;;;1.05;;
52868;SDS011;39100;53.480;6.158;2022-07-04T01:08:43;1.42;;;0.70;;
52868;SDS011;39100;53.480;6.158;2022-07-04T01:11:10;2.17;;;0.40;;
52868;SDS011;39100;53.480;6.158;2022-07-04T01:13:36;1.92;;;0.60;;
52868;SDS011;39100;53.480;6.158;2022-07-04T01:16:02;2.92;;;0.98;;
52868;SDS011;39100;53.480;6.158;2022-07-04T01:18:29;3.03;;;1.13;;
52868;SDS011;39100;53.480;6.158;2022-07-04T01:20:55;2.13;;;0.70;;
52868;SDS011;39100;53.480;6.158;2022-07-04T01:23:20;2.05;;;0.75;;
52868;SDS011;39100;53.480;6.158;2022-07-04T01:25:46;1.67;;;0.50;;
52868;SDS011;39100;53.480;6.158;2022-07-04T01:28:13;1.25;;;0.60;;
52868;SDS011;39100;53.480;6.158;2022-07-04T01:30:39;1.02;;;0.60;;
52868;SDS011;39100;53.480;6.158;2022-07-04T01:33:04;0.63;;;0.50;;
52868;SDS011;39100;53.480;6.158;2022-07-04T01:35:30;2.78;;;0.63;;
52868;SDS011;39100;53.480;6.158;2022-07-04T01:37:56;0.68;;;0.68;;
52868;SDS011;39100;53.480;6.158;2022-07-04T01:40:22;1.90;;;0.55;;
52868;SDS011;39100;53.480;6.158;2022-07-04T01:42:48;1.38;;;0.90;;
52868;SDS011;39100;53.480;6.158;2022-07-04T01:45:14;1.17;;;0.80;;
52868;SDS011;39100;53.480;6.158;2022-07-04T01:47:40;1.92;;;0.80;;
52868;SDS011;39100;53.480;6.158;2022-07-04T01:50:07;2.10;;;0.50;;
52868;SDS011;39100;53.480;6.158;2022-07-04T01:52:35;3.50;;;0.77;;
52868;SDS011;39100;53.480;6.158;2022-07-04T01:55:01;1.30;;;0.82;;
52868;SDS011;39100;53.480;6.158;2022-07-04T01:57:26;1.35;;;0.60;;
52868;SDS011;39100;53.480;6.158;2022-07-04T01:59:52;3.25;;;0.70;;
52868;SDS011;39100;53.480;6.158;2022-07-04T02:02:36;2.90;;;0.70;;
52868;SDS011;39100;53.480;6.158;2022-07-04T02:05:02;1.15;;;0.80;;
52868;SDS011;39100;53.480;6.158;2022-07-04T02:07:29;2.47;;;0.93;;
52868;SDS011;39100;53.480;6.158;2022-07-04T02:09:54;2.47;;;0.50;;
52868;SDS011;39100;53.480;6.158;2022-07-04T02:12:20;0.43;;;0.30;;
52868;SDS011;39100;53.480;6.158;2022-07-04T02:15:04;2.47;;;0.80;;
52868;SDS011;39100;53.480;6.158;2022-07-04T02:17:30;2.60;;;0.90;;
52868;SDS011;39100;53.480;6.158;2022-07-04T02:19:56;2.92;;;0.73;;
52868;SDS011;39100;53.480;6.158;2022-07-04T02:22:21;1.83;;;1.23;;
52868;SDS011;39100;53.480;6.158;2022-07-04T02:24:47;1.23;;;0.93;;
52868;SDS011;39100;53.480;6.158;2022-07-04T02:27:12;1.10;;;1.00;;
52868;SDS011;39100;53.480;6.158;2022-07-04T02:29:38;1.63;;;1.02;;
52868;SDS011;39100;53.480;6.158;2022-07-04T02:32:04;3.75;;;1.00;;
52868;SDS011;39100;53.480;6.158;2022-07-04T02:34:30;1.52;;;0.70;;
52868;SDS011;39100;53.480;6.158;2022-07-04T02:36:55;2.50;;;1.20;;
52868;SDS011;39100;53.480;6.158;2022-07-04T02:39:21;1.98;;;1.33;;
52868;SDS011;39100;53.480;6.158;2022-07-04T02:41:47;5.55;;;1.50;;
52868;SDS011;39100;53.480;6.158;2022-07-04T02:44:13;5.75;;;1.30;;
52868;SDS011;39100;53.480;6.158;2022-07-04T02:46:38;2.45;;;1.25;;
52868;SDS011;39100;53.480;6.158;2022-07-04T02:49:04;0.80;;;0.80;;
52868;SDS011;39100;53.480;6.158;2022-07-04T02:51:30;1.38;;;1.02;;
52868;SDS011;39100;53.480;6.158;2022-07-04T02:53:56;2.92;;;1.27;;
52868;SDS011;39100;53.480;6.158;2022-07-04T02:56:22;2.88;;;0.80;;
52868;SDS011;39100;53.480;6.158;2022-07-04T02:58:47;2.97;;;1.17;;
52868;SDS011;39100;53.480;6.158;2022-07-04T03:01:13;2.63;;;0.73;;
52868;SDS011;39100;53.480;6.158;2022-07-04T03:03:40;3.38;;;0.57;;
52868;SDS011;39100;53.480;6.158;2022-07-04T03:06:09;2.72;;;0.90;;
52868;SDS011;39100;53.480;6.158;2022-07-04T03:08:35;2.72;;;0.68;;
52868;SDS011;39100;53.480;6.158;2022-07-04T03:11:01;1.00;;;0.68;;
52868;SDS011;39100;53.480;6.158;2022-07-04T03:13:27;3.55;;;0.70;;
52868;SDS011;39100;53.480;6.158;2022-07-04T03:15:53;4.85;;;1.02;;
52868;SDS011;39100;53.480;6.158;2022-07-04T03:18:19;2.42;;;1.38;;
52868;SDS011;39100;53.480;6.158;2022-07-04T03:20:45;1.60;;;0.75;;
52868;SDS011;39100;53.480;6.158;2022-07-04T03:23:11;4.57;;;1.48;;
52868;SDS011;39100;53.480;6.158;2022-07-04T03:25:37;4.53;;;1.05;;
52868;SDS011;39100;53.480;6.158;2022-07-04T03:28:03;1.27;;;0.80;;
52868;SDS011;39100;53.480;6.158;2022-07-04T03:30:29;2.17;;;1.10;;
52868;SDS011;39100;53.480;6.158;2022-07-04T03:32:54;3.10;;;0.90;;
52868;SDS011;39100;53.480;6.158;2022-07-04T03:35:20;2.88;;;1.27;;
52868;SDS011;39100;53.480;6.158;2022-07-04T03:37:46;3.25;;;0.80;;
52868;SDS011;39100;53.480;6.158;2022-07-04T03:40:12;1.70;;;0.63;;
52868;SDS011;39100;53.480;6.158;2022-07-04T03:42:37;1.52;;;1.33;;
52868;SDS011;39100;53.480;6.158;2022-07-04T03:45:06;3.92;;;1.35;;
52868;SDS011;39100;53.480;6.158;2022-07-04T03:47:32;1.30;;;0.95;;
52868;SDS011;39100;53.480;6.158;2022-07-04T03:49:58;3.10;;;0.93;;
52868;SDS011;39100;53.480;6.158;2022-07-04T03:52:23;1.40;;;1.05;;
52868;SDS011;39100;53.480;6.158;2022-07-04T03:54:49;4.90;;;1.20;;
52868;SDS011;39100;53.480;6.158;2022-07-04T03:57:14;3.75;;;1.20;;
52868;SDS011;39100;53.480;6.158;2022-07-04T03:59:40;2.58;;;1.05;;
52868;SDS011;39100;53.480;6.158;2022-07-04T04:02:06;4.85;;;1.35;;
52868;SDS011;39100;53.480;6.158;2022-07-04T04:04:31;1.73;;;1.00;;
52868;SDS011;39100;53.480;6.158;2022-07-04T04:07:15;1.85;;;1.08;;
52868;SDS011;39100;53.480;6.158;2022-07-04T04:09:41;2.08;;;1.08;;
52868;SDS011;39100;53.480;6.158;2022-07-04T04:12:06;3.13;;;1.10;;
52868;SDS011;39100;53.480;6.158;2022-07-04T04:14:32;3.42;;;1.25;;
52868;SDS011;39100;53.480;6.158;2022-07-04T04:16:58;3.88;;;1.45;;
52868;SDS011;39100;53.480;6.158;2022-07-04T04:19:23;2.53;;;1.63;;
52868;SDS011;39100;53.480;6.158;2022-07-04T04:21:49;2.58;;;1.15;;
52868;SDS011;39100;53.480;6.158;2022-07-04T04:24:14;1.63;;;1.52;;
52868;SDS011;39100;53.480;6.158;2022-07-04T04:26:40;2.40;;;0.90;;
52868;SDS011;39100;53.480;6.158;2022-07-04T04:29:06;2.70;;;1.30;;
52868;SDS011;39100;53.480;6.158;2022-07-04T04:31:31;1.63;;;0.98;;
52868;SDS011;39100;53.480;6.158;2022-07-04T04:33:57;3.75;;;0.93;;
52868;SDS011;39100;53.480;6.158;2022-07-04T04:36:22;4.03;;;1.17;;
52868;SDS011;39100;53.480;6.158;2022-07-04T04:38:48;2.20;;;1.10;;
52868;SDS011;39100;53.480;6.158;2022-07-04T04:41:14;2.08;;;1.30;;
52868;SDS011;39100;53.480;6.158;2022-07-04T04:43:41;1.98;;;0.88;;
52868;SDS011;39100;53.480;6.158;2022-07-04T04:46:07;2.67;;;1.05;;
52868;SDS011;39100;53.480;6.158;2022-07-04T04:48:32;0.90;;;0.80;;
52868;SDS011;39100;53.480;6.158;2022-07-04T04:50:58;4.88;;;1.08;;
52868;SDS011;39100;53.480;6.158;2022-07-04T04:53:23;1.08;;;0.90;;
52868;SDS011;39100;53.480;6.158;2022-07-04T04:55:51;3.00;;;1.10;;
52868;SDS011;39100;53.480;6.158;2022-07-04T04:58:17;5.43;;;1.05;;
52868;SDS011;39100;53.480;6.158;2022-07-04T05:00:44;0.93;;;0.90;;
52868;SDS011;39100;53.480;6.158;2022-07-04T05:03:09;1.83;;;0.90;;
52868;SDS011;39100;53.480;6.158;2022-07-04T05:05:35;4.43;;;1.00;;
52868;SDS011;39100;53.480;6.158;2022-07-04T05:08:00;3.15;;;0.90;;
52868;SDS011;39100;53.480;6.158;2022-07-04T05:10:26;2.00;;;1.05;;
52868;SDS011;39100;53.480;6.158;2022-07-04T05:12:52;2.65;;;0.93;;
52868;SDS011;39100;53.480;6.158;2022-07-04T05:15:17;2.08;;;0.95;;
52868;SDS011;39100;53.480;6.158;2022-07-04T05:17:43;2.90;;;1.45;;
52868;SDS011;39100;53.480;6.158;2022-07-04T05:20:08;4.20;;;1.10;;
52868;SDS011;39100;53.480;6.158;2022-07-04T05:22:34;2.53;;;0.90;;
52868;SDS011;39100;53.480;6.158;2022-07-04T05:25:00;1.02;;;0.88;;
52868;SDS011;39100;53.480;6.158;2022-07-04T05:27:26;2.25;;;0.90;;
52868;SDS011;39100;53.480;6.158;2022-07-04T05:29:52;1.13;;;0.98;;
52868;SDS011;39100;53.480;6.158;2022-07-04T05:32:17;2.40;;;0.88;;
52868;SDS011;39100;53.480;6.158;2022-07-04T05:34:43;2.20;;;0.88;;
52868;SDS011;39100;53.480;6.158;2022-07-04T05:37:08;2.03;;;0.85;;
52868;SDS011;39100;53.480;6.158;2022-07-04T05:39:34;1.30;;;0.90;;
52868;SDS011;39100;53.480;6.158;2022-07-04T05:42:00;1.13;;;0.80;;
52868;SDS011;39100;53.480;6.158;2022-07-04T05:44:25;3.38;;;0.73;;
52868;SDS011;39100;53.480;6.158;2022-07-04T05:46:51;1.85;;;1.05;;
52868;SDS011;39100;53.480;6.158;2022-07-04T05:49:16;1.65;;;0.73;;
52868;SDS011;39100;53.480;6.158;2022-07-04T05:51:42;2.88;;;1.10;;
52868;SDS011;39100;53.480;6.158;2022-07-04T05:54:08;2.28;;;1.10;;
52868;SDS011;39100;53.480;6.158;2022-07-04T05:56:33;1.75;;;1.23;;
52868;SDS011;39100;53.480;6.158;2022-07-04T05:58:59;1.70;;;1.52;;
52868;SDS011;39100;53.480;6.158;2022-07-04T06:01:24;2.35;;;1.42;;
52868;SDS011;39100;53.480;6.158;2022-07-04T06:03:50;3.72;;;1.23;;
52868;SDS011;39100;53.480;6.158;2022-07-04T06:06:16;1.17;;;0.93;;
52868;SDS011;39100;53.480;6.158;2022-07-04T06:08:41;1.90;;;0.68;;
52868;SDS011;39100;53.480;6.158;2022-07-04T06:11:07;2.28;;;0.88;;
52868;SDS011;39100;53.480;6.158;2022-07-04T06:13:33;1.75;;;0.52;;
52868;SDS011;39100;53.480;6.158;2022-07-04T06:15:59;3.80;;;0.77;;
52868;SDS011;39100;53.480;6.158;2022-07-04T06:18:24;3.22;;;0.95;;
52868;SDS011;39100;53.480;6.158;2022-07-04T06:20:50;3.10;;;0.95;;
52868;SDS011;39100;53.480;6.158;2022-07-04T06:23:15;2.35;;;1.10;;
52868;SDS011;39100;53.480;6.158;2022-07-04T06:25:41;1.73;;;1.00;;
52868;SDS011;39100;53.480;6.158;2022-07-04T06:28:07;1.05;;;0.95;;
52868;SDS011;39100;53.480;6.158;2022-07-04T06:30:33;1.15;;;1.05;;
52868;SDS011;39100;53.480;6.158;2022-07-04T06:32:58;2.67;;;0.70;;
52868;SDS011;39100;53.480;6.158;2022-07-04T06:35:28;1.25;;;0.90;;
52868;SDS011;39100;53.480;6.158;2022-07-04T06:38:11;1.35;;;0.80;;
52868;SDS011;39100;53.480;6.158;2022-07-04T06:40:38;1.55;;;0.80;;
52868;SDS011;39100;53.480;6.158;2022-07-04T06:43:04;1.30;;;0.77;;
52868;SDS011;39100;53.480;6.158;2022-07-04T06:45:30;2.60;;;0.60;;
52868;SDS011;39100;53.480;6.158;2022-07-04T06:47:56;3.05;;;1.23;;
52868;SDS011;39100;53.480;6.158;2022-07-04T06:50:22;1.05;;;0.40;;
52868;SDS011;39100;53.480;6.158;2022-07-04T06:52:47;1.02;;;0.40;;
52868;SDS011;39100;53.480;6.158;2022-07-04T06:55:13;1.25;;;0.57;;
52868;SDS011;39100;53.480;6.158;2022-07-04T06:57:39;2.45;;;0.55;;
52868;SDS011;39100;53.480;6.158;2022-07-04T07:00:05;0.50;;;0.43;;
52868;SDS011;39100;53.480;6.158;2022-07-04T07:02:35;0.20;;;0.20;;
52868;SDS011;39100;53.480;6.158;2022-07-04T07:05:02;1.98;;;1.13;;
52868;SDS011;39100;53.480;6.158;2022-07-04T07:07:28;1.02;;;0.30;;
52868;SDS011;39100;53.480;6.158;2022-07-04T07:09:55;3.20;;;0.60;;
52868;SDS011;39100;53.480;6.158;2022-07-04T07:12:21;4.00;;;0.40;;
52868;SDS011;39100;53.480;6.158;2022-07-04T07:14:48;2.72;;;0.50;;
52868;SDS011;39100;53.480;6.158;2022-07-04T07:17:14;1.33;;;0.40;;
52868;SDS011;39100;53.480;6.158;2022-07-04T07:19:41;2.30;;;0.70;;
52868;SDS011;39100;53.480;6.158;2022-07-04T07:22:10;2.90;;;0.30;;
52868;SDS011;39100;53.480;6.158;2022-07-04T07:24:36;1.42;;;0.50;;
52868;SDS011;39100;53.480;6.158;2022-07-04T07:27:02;1.95;;;0.35;;
52868;SDS011;39100;53.480;6.158;2022-07-04T07:29:27;1.65;;;0.30;;
52868;SDS011;39100;53.480;6.158;2022-07-04T07:31:53;0.63;;;0.20;;
52868;SDS011;39100;53.480;6.158;2022-07-04T07:34:19;1.75;;;0.40;;
52868;SDS011;39100;53.480;6.158;2022-07-04T07:36:44;1.40;;;0.30;;
52868;SDS011;39100;53.480;6.158;2022-07-04T07:39:10;1.35;;;0.10;;
52868;SDS011;39100;53.480;6.158;2022-07-04T07:41:36;3.72;;;0.20;;
52868;SDS011;39100;53.480;6.158;2022-07-04T07:44:01;1.30;;;0.30;;
52868;SDS011;39100;53.480;6.158;2022-07-04T07:46:27;3.50;;;0.32;;
52868;SDS011;39100;53.480;6.158;2022-07-04T07:48:52;0.40;;;0.20;;
52868;SDS011;39100;53.480;6.158;2022-07-04T07:51:18;0.65;;;0.20;;
52868;SDS011;39100;53.480;6.158;2022-07-04T07:53:44;5.03;;;0.30;;
52868;SDS011;39100;53.480;6.158;2022-07-04T07:56:09;1.67;;;0.40;;
52868;SDS011;39100;53.480;6.158;2022-07-04T07:58:35;0.17;;;0.17;;
52868;SDS011;39100;53.480;6.158;2022-07-04T08:01:01;0.30;;;0.05;;
52868;SDS011;39100;53.480;6.158;2022-07-04T08:03:27;0.20;;;0.00;;
52868;SDS011;39100;53.480;6.158;2022-07-04T08:06:12;0.10;;;0.10;;
52868;SDS011;39100;53.480;6.158;2022-07-04T08:08:39;0.00;;;0.00;;
52868;SDS011;39100;53.480;6.158;2022-07-04T08:11:05;0.52;;;0.38;;
52868;SDS011;39100;53.480;6.158;2022-07-04T08:13:31;0.38;;;0.10;;
52868;SDS011;39100;53.480;6.158;2022-07-04T08:15:57;0.00;;;0.00;;
52868;SDS011;39100;53.480;6.158;2022-07-04T08:18:22;0.40;;;0.10;;
52868;SDS011;39100;53.480;6.158;2022-07-04T08:20:48;0.47;;;0.10;;
52868;SDS011;39100;53.480;6.158;2022-07-04T08:23:15;0.73;;;0.25;;
52868;SDS011;39100;53.480;6.158;2022-07-04T08:25:40;0.10;;;0.10;;
52868;SDS011;39100;53.480;6.158;2022-07-04T08:28:06;1.02;;;0.10;;
52868;SDS011;39100;53.480;6.158;2022-07-04T08:30:32;0.17;;;0.03;;
52868;SDS011;39100;53.480;6.158;2022-07-04T08:32:58;0.68;;;0.20;;
52868;SDS011;39100;53.480;6.158;2022-07-04T08:35:23;0.20;;;0.00;;
52868;SDS011;39100;53.480;6.158;2022-07-04T08:37:49;1.60;;;0.10;;
52868;SDS011;39100;53.480;6.158;2022-07-04T08:40:20;0.63;;;0.10;;
52868;SDS011;39100;53.480;6.158;2022-07-04T08:42:49;0.60;;;0.10;;
52868;SDS011;39100;53.480;6.158;2022-07-04T08:45:16;1.25;;;0.22;;
52868;SDS011;39100;53.480;6.158;2022-07-04T08:47:42;0.30;;;0.13;;
52868;SDS011;39100;53.480;6.158;2022-07-04T08:50:10;1.33;;;0.10;;
52868;SDS011;39100;53.480;6.158;2022-07-04T08:52:38;0.30;;;0.10;;
52868;SDS011;39100;53.480;6.158;2022-07-04T08:55:06;0.45;;;0.30;;
52868;SDS011;39100;53.480;6.158;2022-07-04T08:58:02;1.08;;;0.20;;
52868;SDS011;39100;53.480;6.158;2022-07-04T09:00:47;0.80;;;0.30;;
52868;SDS011;39100;53.480;6.158;2022-07-04T09:03:14;1.38;;;0.25;;
52868;SDS011;39100;53.480;6.158;2022-07-04T09:05:40;0.40;;;0.22;;
52868;SDS011;39100;53.480;6.158;2022-07-04T09:08:06;0.90;;;0.28;;
52868;SDS011;39100;53.480;6.158;2022-07-04T09:10:31;0.77;;;0.20;;
52868;SDS011;39100;53.480;6.158;2022-07-04T09:12:57;1.77;;;0.50;;
52868;SDS011;39100;53.480;6.158;2022-07-04T09:15:27;0.38;;;0.30;;
52868;SDS011;39100;53.480;6.158;2022-07-04T09:17:53;0.75;;;0.32;;
52868;SDS011;39100;53.480;6.158;2022-07-04T09:20:20;0.93;;;0.13;;
52868;SDS011;39100;53.480;6.158;2022-07-04T09:22:47;1.08;;;0.30;;
52868;SDS011;39100;53.480;6.158;2022-07-04T09:25:14;1.13;;;0.40;;
52868;SDS011;39100;53.480;6.158;2022-07-04T09:27:45;1.25;;;0.32;;
52868;SDS011;39100;53.480;6.158;2022-07-04T09:30:16;1.55;;;0.20;;
52868;SDS011;39100;53.480;6.158;2022-07-04T09:32:47;2.30;;;0.20;;
52868;SDS011;39100;53.480;6.158;2022-07-04T09:35:20;1.63;;;0.30;;
52868;SDS011;39100;53.480;6.158;2022-07-04T09:37:55;1.27;;;0.30;;
52868;SDS011;39100;53.480;6.158;2022-07-04T09:40:26;1.15;;;0.20;;
52868;SDS011;39100;53.480;6.158;2022-07-04T09:42:57;1.27;;;0.28;;
52868;SDS011;39100;53.480;6.158;2022-07-04T09:45:24;3.88;;;0.40;;
52868;SDS011;39100;53.480;6.158;2022-07-04T09:47:53;0.60;;;0.20;;
52868;SDS011;39100;53.480;6.158;2022-07-04T09:50:20;0.28;;;0.20;;
52868;SDS011;39100;53.480;6.158;2022-07-04T09:52:55;0.82;;;0.15;;
52868;SDS011;39100;53.480;6.158;2022-07-04T09:57:51;0.17;;;0.17;;
52868;SDS011;39100;53.480;6.158;2022-07-04T10:02:44;1.33;;;0.40;;
52868;SDS011;39100;53.480;6.158;2022-07-04T10:05:10;1.00;;;0.40;;
52868;SDS011;39100;53.480;6.158;2022-07-04T10:07:37;3.60;;;0.30;;
52868;SDS011;39100;53.480;6.158;2022-07-04T10:10:23;1.65;;;0.25;;
52868;SDS011;39100;53.480;6.158;2022-07-04T10:12:51;0.83;;;0.27;;
52868;SDS011;39100;53.480;6.158;2022-07-04T10:15:18;2.15;;;0.40;;
52868;SDS011;39100;53.480;6.158;2022-07-04T10:17:44;1.15;;;0.20;;
52868;SDS011;39100;53.480;6.158;2022-07-04T10:20:11;0.90;;;0.20;;
52868;SDS011;39100;53.480;6.158;2022-07-04T10:22:37;1.05;;;0.20;;
52868;SDS011;39100;53.480;6.158;2022-07-04T10:25:07;1.27;;;0.40;;
52868;SDS011;39100;53.480;6.158;2022-07-04T10:27:34;2.80;;;0.47;;
52868;SDS011;39100;53.480;6.158;2022-07-04T10:30:01;1.38;;;0.43;;
52868;SDS011;39100;53.480;6.158;2022-07-04T10:32:30;0.52;;;0.28;;
52868;SDS011;39100;53.480;6.158;2022-07-04T10:34:57;1.42;;;0.20;;
52868;SDS011;39100;53.480;6.158;2022-07-04T10:37:23;0.70;;;0.38;;
52868;SDS011;39100;53.480;6.158;2022-07-04T10:39:48;2.70;;;0.70;;
52868;SDS011;39100;53.480;6.158;2022-07-04T10:42:24;1.77;;;0.20;;
52868;SDS011;39100;53.480;6.158;2022-07-04T10:44:50;1.35;;;0.20;;
52868;SDS011;39100;53.480;6.158;2022-07-04T10:47:22;1.02;;;0.30;;
52868;SDS011;39100;53.480;6.158;2022-07-04T10:49:50;1.30;;;0.52;;
52868;SDS011;39100;53.480;6.158;2022-07-04T10:52:16;0.75;;;0.40;;
52868;SDS011;39100;53.480;6.158;2022-07-04T10:54:44;2.88;;;0.35;;
52868;SDS011;39100;53.480;6.158;2022-07-04T10:57:11;2.00;;;0.38;;
52868;SDS011;39100;53.480;6.158;2022-07-04T10:59:41;2.10;;;0.30;;
52868;SDS011;39100;53.480;6.158;2022-07-04T11:18:09;2.42;;;0.38;;
52868;SDS011;39100;53.480;6.158;2022-07-04T11:20:36;0.80;;;0.20;;
52868;SDS011;39100;53.480;6.158;2022-07-04T11:23:12;0.68;;;0.10;;
52868;SDS011;39100;53.480;6.158;2022-07-04T11:25:40;1.55;;;0.20;;
52868;SDS011;39100;53.480;6.158;2022-07-04T11:28:22;0.10;;;0.10;;
52868;SDS011;39100;53.480;6.158;2022-07-04T11:30:53;0.50;;;0.20;;
52868;SDS011;39100;53.480;6.158;2022-07-04T11:33:21;0.40;;;0.25;;
52868;SDS011;39100;53.480;6.158;2022-07-04T11:36:04;1.35;;;0.30;;
52868;SDS011;39100;53.480;6.158;2022-07-04T11:44:24;1.65;;;0.20;;
52868;SDS011;39100;53.480;6.158;2022-07-04T11:47:13;0.28;;;0.10;;
52868;SDS011;39100;53.480;6.158;2022-07-04T11:49:41;0.35;;;0.00;;
52868;SDS011;39100;53.480;6.158;2022-07-04T11:52:08;1.95;;;0.25;;
52868;SDS011;39100;53.480;6.158;2022-07-04T11:54:34;1.48;;;0.20;;
52868;SDS011;39100;53.480;6.158;2022-07-04T11:57:13;2.92;;;0.30;;
52868;SDS011;39100;53.480;6.158;2022-07-04T11:59:41;1.70;;;0.20;;
52868;SDS011;39100;53.480;6.158;2022-07-04T12:02:15;1.42;;;0.30;;
52868;SDS011;39100;53.480;6.158;2022-07-04T12:04:41;0.68;;;0.30;;
52868;SDS011;39100;53.480;6.158;2022-07-04T12:07:11;1.95;;;0.22;;
52868;SDS011;39100;53.480;6.158;2022-07-04T12:09:38;0.77;;;0.20;;
52868;SDS011;39100;53.480;6.158;2022-07-04T12:12:05;3.08;;;0.38;;
52868;SDS011;39100;53.480;6.158;2022-07-04T12:14:31;1.65;;;0.30;;
52868;SDS011;39100;53.480;6.158;2022-07-04T12:17:09;2.08;;;0.30;;
52868;SDS011;39100;53.480;6.158;2022-07-04T12:19:49;0.45;;;0.30;;
52868;SDS011;39100;53.480;6.158;2022-07-04T12:22:27;3.10;;;0.45;;
52868;SDS011;39100;53.480;6.158;2022-07-04T12:24:58;1.08;;;0.32;;
52868;SDS011;39100;53.480;6.158;2022-07-04T12:27:24;1.15;;;0.20;;
52868;SDS011;39100;53.480;6.158;2022-07-04T12:29:51;0.30;;;0.10;;
52868;SDS011;39100;53.480;6.158;2022-07-04T12:32:18;0.90;;;0.20;;
52868;SDS011;39100;53.480;6.158;2022-07-04T12:34:45;2.47;;;0.47;;
52868;SDS011;39100;53.480;6.158;2022-07-04T12:37:11;0.80;;;0.10;;
52868;SDS011;39100;53.480;6.158;2022-07-04T12:39:39;1.38;;;0.13;;
52868;SDS011;39100;53.480;6.158;2022-07-04T12:42:12;0.35;;;0.10;;
52868;SDS011;39100;53.480;6.158;2022-07-04T12:44:40;2.47;;;0.30;;
52868;SDS011;39100;53.480;6.158;2022-07-04T12:47:07;1.45;;;0.22;;
52868;SDS011;39100;53.480;6.158;2022-07-04T12:49:33;2.20;;;0.17;;
52868;SDS011;39100;53.480;6.158;2022-07-04T12:52:03;0.63;;;0.30;;
52868;SDS011;39100;53.480;6.158;2022-07-04T12:54:30;2.25;;;0.30;;
52868;SDS011;39100;53.480;6.158;2022-07-04T12:57:07;3.40;;;0.20;;
52868;SDS011;39100;53.480;6.158;2022-07-04T12:59:35;1.38;;;0.32;;
52868;SDS011;39100;53.480;6.158;2022-07-04T13:02:01;0.98;;;0.20;;
52868;SDS011;39100;53.480;6.158;2022-07-04T13:04:27;0.85;;;0.10;;
52868;SDS011;39100;53.480;6.158;2022-07-04T13:06:52;0.40;;;0.15;;
52868;SDS011;39100;53.480;6.158;2022-07-04T13:09:18;0.73;;;0.13;;
52868;SDS011;39100;53.480;6.158;2022-07-04T13:11:44;1.95;;;0.20;;
52868;SDS011;39100;53.480;6.158;2022-07-04T13:14:28;0.80;;;0.10;;
52868;SDS011;39100;53.480;6.158;2022-07-04T13:16:54;1.60;;;0.20;;
52868;SDS011;39100;53.480;6.158;2022-07-04T13:19:19;1.10;;;0.22;;
52868;SDS011;39100;53.480;6.158;2022-07-04T13:21:45;1.10;;;0.10;;
52868;SDS011;39100;53.480;6.158;2022-07-04T13:24:12;0.32;;;0.10;;
52868;SDS011;39100;53.480;6.158;2022-07-04T13:26:38;0.93;;;0.10;;
52868;SDS011;39100;53.480;6.158;2022-07-04T13:29:05;1.15;;;0.10;;
52868;SDS011;39100;53.480;6.158;2022-07-04T13:31:31;0.88;;;0.10;;
52868;SDS011;39100;53.480;6.158;2022-07-04T13:33:57;1.13;;;0.10;;
52868;SDS011;39100;53.480;6.158;2022-07-04T13:36:22;0.70;;;0.10;;
52868;SDS011;39100;53.480;6.158;2022-07-04T13:38:48;1.35;;;0.20;;
52868;SDS011;39100;53.480;6.158;2022-07-04T13:41:13;1.25;;;0.20;;
52868;SDS011;39100;53.480;6.158;2022-07-04T13:43:39;0.15;;;0.10;;
52868;SDS011;39100;53.480;6.158;2022-07-04T13:46:05;2.58;;;0.43;;
52868;SDS011;39100;53.480;6.158;2022-07-04T13:48:31;0.30;;;0.00;;
52868;SDS011;39100;53.480;6.158;2022-07-04T13:50:56;2.17;;;0.20;;
52868;SDS011;39100;53.480;6.158;2022-07-04T13:53:22;0.80;;;0.10;;
52868;SDS011;39100;53.480;6.158;2022-07-04T13:55:47;1.20;;;0.10;;
52868;SDS011;39100;53.480;6.158;2022-07-04T13:58:13;1.05;;;0.10;;
52868;SDS011;39100;53.480;6.158;2022-07-04T14:00:39;1.88;;;0.30;;
52868;SDS011;39100;53.480;6.158;2022-07-04T14:03:09;1.75;;;0.17;;
52868;SDS011;39100;53.480;6.158;2022-07-04T14:05:36;1.35;;;0.00;;
52868;SDS011;39100;53.480;6.158;2022-07-04T14:08:02;0.10;;;0.03;;
52868;SDS011;39100;53.480;6.158;2022-07-04T14:10:27;5.55;;;0.30;;
52868;SDS011;39100;53.480;6.158;2022-07-04T14:12:53;4.13;;;0.30;;
52868;SDS011;39100;53.480;6.158;2022-07-04T14:15:18;0.20;;;0.00;;
52868;SDS011;39100;53.480;6.158;2022-07-04T14:17:44;1.25;;;0.10;;
52868;SDS011;39100;53.480;6.158;2022-07-04T14:20:11;0.45;;;0.10;;
52868;SDS011;39100;53.480;6.158;2022-07-04T14:22:38;2.92;;;0.52;;
52868;SDS011;39100;53.480;6.158;2022-07-04T14:25:04;2.00;;;0.25;;
52868;SDS011;39100;53.480;6.158;2022-07-04T14:27:30;2.05;;;0.28;;
52868;SDS011;39100;53.480;6.158;2022-07-04T14:29:56;1.25;;;0.65;;
52868;SDS011;39100;53.480;6.158;2022-07-04T14:32:22;0.20;;;0.05;;
52868;SDS011;39100;53.480;6.158;2022-07-04T14:34:47;2.50;;;0.43;;
52868;SDS011;39100;53.480;6.158;2022-07-04T14:37:13;0.50;;;0.10;;
52868;SDS011;39100;53.480;6.158;2022-07-04T14:39:39;2.15;;;0.10;;
52868;SDS011;39100;53.480;6.158;2022-07-04T14:42:04;1.40;;;0.20;;
52868;SDS011;39100;53.480;6.158;2022-07-04T14:44:30;1.42;;;0.30;;
52868;SDS011;39100;53.480;6.158;2022-07-04T14:47:00;0.40;;;0.10;;
52868;SDS011;39100;53.480;6.158;2022-07-04T14:49:26;0.80;;;0.20;;
52868;SDS011;39100;53.480;6.158;2022-07-04T14:51:52;0.63;;;0.20;;
52868;SDS011;39100;53.480;6.158;2022-07-04T14:54:17;0.38;;;0.10;;
52868;SDS011;39100;53.480;6.158;2022-07-04T14:56:43;1.20;;;0.13;;
52868;SDS011;39100;53.480;6.158;2022-07-04T14:59:09;1.33;;;0.10;;
52868;SDS011;39100;53.480;6.158;2022-07-04T15:01:34;0.25;;;0.10;;
52868;SDS011;39100;53.480;6.158;2022-07-04T15:04:00;0.30;;;0.05;;
52868;SDS011;39100;53.480;6.158;2022-07-04T15:06:25;4.55;;;0.08;;
52868;SDS011;39100;53.480;6.158;2022-07-04T15:08:51;3.05;;;0.20;;
52868;SDS011;39100;53.480;6.158;2022-07-04T15:11:18;0.50;;;0.10;;
52868;SDS011;39100;53.480;6.158;2022-07-04T15:13:43;1.35;;;0.10;;